PFKW

Details ICAO PFKW (KWT)
Name Kwethluk
Region USA (Alaska)
Timezone America/Anchorage (UTC-9.0)
Plans Departing 0
Arriving 0
Stats Elevation 28 ft / 9 m (AMSL)
Location 60.804252° -161.445350°
Runways 1
Magnetic Variation 11.662° E
Sunrise 2017-12-14 19:51:44 UTC / 2017-12-14 10:51:44 Local
Sunset 2017-12-15 01:32:24 UTC / 2017-12-14 16:32:24 Local
Advertisement - Login to hide

Runways

ID Width Length Bearing (true) Bearing (mag) Surface Threshold Offset Overrun Length
06 30 ft / 9 m 1,752 ft / 534 m 79.00° 67.34° Gravel 0 ft / 0 m 0 ft / 0 m
24 30 ft / 9 m 1,752 ft / 534 m 259.00° 247.34° Gravel 0 ft / 0 m 0 ft / 0 m

Map

Weather


0- 5 10 15 20 25 30 35+ Temperature / ° C

Clouds and Precipitation
Forecast for 2017-12-15 00:00 UTC. Updated 2 hours ago

Ground ~20,000 ft ~40,000 ft Winds

METAR

PFKW 150014Z AUTO 03006KT 4SM -SN BR FEW016 BKN023 OVC049 M04/M05 A2954 RMK AO2 P0000 FZRANO

TAF

Not found
Warning: Do not use this data for real-world aviation or navigation. No guarantee of current accuracy is given.